createdAt,value
2017-05-03T00:00:34.064Z,14.24
2017-05-03T00:01:14.553Z,14.27
2017-05-03T00:01:55.064Z,14.37
2017-05-03T00:02:35.594Z,14.28
2017-05-03T00:03:16.021Z,14.27
2017-05-03T00:03:56.516Z,14.21
2017-05-03T00:04:37.013Z,14.18
2017-05-03T00:05:17.483Z,14.07
2017-05-03T00:05:57.977Z,14.1
2017-05-03T00:06:38.465Z,14.1
2017-05-03T00:07:18.912Z,14.1
2017-05-03T00:07:59.425Z,14.06
2017-05-03T00:08:39.922Z,14.14
2017-05-03T00:09:20.398Z,14.18
2017-05-03T00:10:00.905Z,14.17
2017-05-03T00:10:41.433Z,14.2
2017-05-03T00:11:21.932Z,14.24
2017-05-03T00:12:02.403Z,14.17
2017-05-03T00:12:42.897Z,14.25
2017-05-03T00:13:23.383Z,14.22
2017-05-03T00:14:03.942Z,14.35
2017-05-03T00:14:44.418Z,14.22
2017-05-03T00:15:24.912Z,14.32
2017-05-03T00:17:19.894Z,14.33
2017-05-03T00:18:00.396Z,14.32
2017-05-03T00:18:40.911Z,14.35
2017-05-03T00:19:21.416Z,14.27
2017-05-03T00:20:01.936Z,14.21
2017-05-03T00:20:42.422Z,14.18
2017-05-03T00:21:22.964Z,14.24
2017-05-03T00:22:03.441Z,14.18
2017-05-03T00:22:43.941Z,14.18
2017-05-03T00:23:24.444Z,14.27
2017-05-03T00:24:04.967Z,14.2
2017-05-03T00:24:45.512Z,14.07
2017-05-03T00:25:26.031Z,14.14
2017-05-03T00:26:06.562Z,14.09
2017-05-03T00:26:47.070Z,14.04
2017-05-03T00:27:27.565Z,14.02
2017-05-03T00:28:08.110Z,14.04
2017-05-03T00:28:48.621Z,14
2017-05-03T00:29:29.159Z,14
2017-05-03T00:30:09.660Z,14.02
2017-05-03T00:30:50.185Z,14
2017-05-03T00:31:30.716Z,13.96
2017-05-03T00:32:11.243Z,13.84
2017-05-03T00:32:51.759Z,13.91
2017-05-03T00:33:32.256Z,13.84
2017-05-03T00:34:12.785Z,13.78
2017-05-03T00:34:53.299Z,13.73
2017-05-03T00:35:33.818Z,13.85
2017-05-03T00:36:14.340Z,13.95
2017-05-03T00:36:54.833Z,13.89
2017-05-03T00:37:35.336Z,13.92
2017-05-03T00:38:15.893Z,13.95
2017-05-03T00:38:56.421Z,14.02
2017-05-03T00:39:36.873Z,14.07
2017-05-03T00:40:17.405Z,14
2017-05-03T00:40:57.933Z,14.07
2017-05-03T00:41:38.402Z,14.04
2017-05-03T00:42:18.942Z,14.07
2017-05-03T00:42:59.515Z,14.14
2017-05-03T00:43:40.022Z,14.17
2017-05-03T00:44:20.596Z,14.14
2017-05-03T00:45:01.045Z,14.14
2017-05-03T00:45:41.623Z,14.17
2017-05-03T00:46:22.164Z,14.2
2017-05-03T00:47:02.642Z,14.06
2017-05-03T00:47:43.170Z,14.18
2017-05-03T00:48:23.714Z,14.18
2017-05-03T00:49:05.990Z,14.04
2017-05-03T00:49:46.514Z,14.07
2017-05-03T00:50:27.028Z,14.09
2017-05-03T00:51:07.545Z,14.02
2017-05-03T00:51:48.042Z,14.09
2017-05-03T00:52:28.606Z,14.18
2017-05-03T00:53:09.096Z,14.06
2017-05-03T00:53:49.656Z,14.03
2017-05-03T00:54:30.168Z,14.09
2017-05-03T00:55:10.696Z,14.1
2017-05-03T00:55:52.991Z,14.03
2017-05-03T00:56:33.501Z,14.07
2017-05-03T00:57:14.056Z,14.07
2017-05-03T00:57:54.537Z,14.12
2017-05-03T00:58:35.072Z,14.06
2017-05-03T00:59:15.595Z,14.1
2017-05-03T00:59:56.083Z,14.1
2017-05-03T01:00:36.605Z,14.07
2017-05-03T01:01:17.127Z,13.95
2017-05-03T01:01:57.641Z,13.96
2017-05-03T01:02:38.102Z,14.03
2017-05-03T01:03:18.650Z,13.92
2017-05-03T01:03:59.174Z,13.97
2017-05-03T01:04:39.677Z,13.96
2017-05-03T01:05:20.214Z,13.92
2017-05-03T01:06:00.741Z,13.87
2017-05-03T01:06:41.260Z,13.97
2017-05-03T01:07:21.762Z,13.84
2017-05-03T01:08:02.268Z,13.92
2017-05-03T01:08:42.804Z,13.87
2017-05-03T01:09:23.331Z,13.87
2017-05-03T01:10:03.863Z,13.81
2017-05-03T01:10:44.391Z,13.81
2017-05-03T01:11:24.900Z,13.78
2017-05-03T01:12:05.451Z,13.84
2017-05-03T01:12:45.987Z,13.84
2017-05-03T01:13:26.517Z,13.84
2017-05-03T01:14:07.031Z,13.79
2017-05-03T01:14:47.584Z,13.81
2017-05-03T01:15:28.082Z,13.79
2017-05-03T01:16:10.598Z,13.78
2017-05-03T01:16:51.095Z,13.82
2017-05-03T01:17:31.635Z,13.88
2017-05-03T01:18:12.138Z,13.88
2017-05-03T01:18:52.601Z,13.85
2017-05-03T01:19:33.128Z,13.84
2017-05-03T01:20:13.671Z,13.81
2017-05-03T01:20:54.199Z,13.78
2017-05-03T01:21:34.686Z,13.81
2017-05-03T01:22:15.186Z,13.89
2017-05-03T01:22:55.696Z,13.75
2017-05-03T01:23:36.209Z,13.89
2017-05-03T01:24:18.620Z,13.81
2017-05-03T01:24:59.110Z,13.95
2017-05-03T01:25:39.670Z,13.92
2017-05-03T01:26:20.142Z,13.91
2017-05-03T01:27:00.635Z,13.97
2017-05-03T01:27:41.199Z,14
2017-05-03T01:28:21.691Z,13.96
2017-05-03T01:29:02.193Z,13.92
2017-05-03T01:29:42.757Z,13.97
2017-05-03T01:30:23.293Z,13.95
2017-05-03T01:31:03.745Z,13.88
2017-05-03T01:31:44.302Z,13.85
2017-05-03T01:32:24.841Z,13.92
2017-05-03T01:33:05.338Z,13.96
2017-05-03T01:33:45.912Z,14.04
2017-05-03T01:34:26.425Z,14.07
2017-05-03T01:35:06.939Z,13.92
2017-05-03T01:35:47.498Z,14.06
2017-05-03T01:36:28.030Z,14.06
2017-05-03T01:37:08.564Z,14.07
2017-05-03T01:37:49.067Z,14.07
2017-05-03T01:38:29.583Z,14.07
2017-05-03T01:39:10.107Z,14.09
2017-05-03T01:39:50.609Z,14
2017-05-03T01:40:31.155Z,14.14
2017-05-03T01:41:11.648Z,14.06
2017-05-03T01:41:52.157Z,14.07
2017-05-03T01:42:32.706Z,14.1
2017-05-03T01:43:13.304Z,14
2017-05-03T01:43:53.790Z,14.06
2017-05-03T01:44:34.307Z,14.02
2017-05-03T01:45:14.816Z,14.04
2017-05-03T01:45:55.315Z,14
2017-05-03T01:46:35.844Z,14.06
2017-05-03T01:47:16.350Z,13.99
2017-05-03T01:47:58.647Z,13.87
2017-05-03T01:48:39.148Z,13.96
2017-05-03T01:49:19.627Z,13.96
2017-05-03T01:50:00.181Z,14.02
2017-05-03T01:50:40.724Z,14.06
2017-05-03T01:51:21.236Z,14.04
2017-05-03T01:52:01.732Z,14.07
2017-05-03T01:52:42.210Z,14.09
2017-05-03T01:53:22.726Z,13.96
2017-05-03T01:54:03.304Z,13.82
2017-05-03T01:54:43.813Z,13.96
2017-05-03T01:55:24.283Z,13.97
2017-05-03T01:56:04.831Z,13.89
2017-05-03T01:56:45.420Z,13.91
2017-05-03T01:57:25.887Z,13.88
2017-05-03T01:58:06.410Z,13.96
2017-05-03T01:58:46.897Z,13.99
2017-05-03T01:59:27.445Z,14
2017-05-03T02:00:07.940Z,13.97
2017-05-03T02:00:48.442Z,13.97
2017-05-03T02:01:28.945Z,14
2017-05-03T02:02:09.410Z,13.95
2017-05-03T02:02:49.946Z,14.07
2017-05-03T02:03:30.481Z,13.99
2017-05-03T02:04:11.054Z,14.03
2017-05-03T02:04:51.593Z,14.04
2017-05-03T02:05:32.085Z,14.02
2017-05-03T02:06:12.586Z,14.04
2017-05-03T02:06:53.085Z,14.02
2017-05-03T02:07:33.631Z,13.99
2017-05-03T02:08:14.145Z,13.81
2017-05-03T02:08:54.642Z,13.88
2017-05-03T02:09:35.108Z,13.87
2017-05-03T02:10:15.591Z,13.89
2017-05-03T02:10:56.159Z,13.92
2017-05-03T02:11:36.609Z,13.85
2017-05-03T02:12:17.137Z,13.79
2017-05-03T02:12:57.670Z,13.84
2017-05-03T02:13:38.186Z,13.78
2017-05-03T02:14:18.676Z,13.88
2017-05-03T02:14:59.201Z,13.78
2017-05-03T02:15:39.742Z,13.84
2017-05-03T02:16:20.229Z,13.81
2017-05-03T02:17:00.737Z,13.73
2017-05-03T02:17:41.289Z,13.67
2017-05-03T02:18:21.804Z,13.81
2017-05-03T02:19:02.282Z,13.85
2017-05-03T02:19:42.797Z,13.82
2017-05-03T02:20:23.300Z,13.78
2017-05-03T02:21:03.841Z,13.82
2017-05-03T02:21:44.350Z,13.82
2017-05-03T02:22:24.861Z,13.81
2017-05-03T02:23:05.391Z,13.7
2017-05-03T02:23:45.921Z,13.69
2017-05-03T02:24:26.477Z,13.64
2017-05-03T02:25:07.029Z,13.69
2017-05-03T02:25:47.556Z,13.79
2017-05-03T02:26:28.075Z,13.79
2017-05-03T02:27:08.670Z,13.71
2017-05-03T02:27:49.182Z,13.69
2017-05-03T02:28:29.701Z,13.64
2017-05-03T02:29:10.202Z,13.62
2017-05-03T02:29:50.679Z,13.63
2017-05-03T02:30:31.179Z,13.75
2017-05-03T02:31:11.694Z,13.7
2017-05-03T02:31:52.243Z,13.64
2017-05-03T02:32:32.725Z,13.55
2017-05-03T02:33:13.228Z,13.64
2017-05-03T02:33:53.848Z,13.59
2017-05-03T02:34:34.362Z,13.57
2017-05-03T02:35:14.846Z,13.57
2017-05-03T02:35:55.366Z,13.59
2017-05-03T02:36:35.917Z,13.49
2017-05-03T02:37:16.378Z,13.57
2017-05-03T02:37:56.896Z,13.62
2017-05-03T02:38:37.465Z,13.57
2017-05-03T02:39:17.967Z,13.42
2017-05-03T02:39:58.468Z,13.55
2017-05-03T02:40:38.990Z,13.57
2017-05-03T02:41:19.506Z,13.49
2017-05-03T02:41:59.988Z,13.54
2017-05-03T02:42:40.539Z,13.45
2017-05-03T02:43:21.056Z,13.46
2017-05-03T02:44:01.573Z,13.46
2017-05-03T02:44:42.053Z,13.39
2017-05-03T02:45:22.552Z,13.32
2017-05-03T02:46:03.077Z,13.38
2017-05-03T02:46:43.558Z,13.44
2017-05-03T02:47:24.066Z,13.39
2017-05-03T02:48:04.524Z,13.48
2017-05-03T02:48:45.041Z,13.44
2017-05-03T02:49:25.575Z,13.54
2017-05-03T02:50:06.086Z,13.48
2017-05-03T02:50:46.597Z,13.41
2017-05-03T02:51:27.073Z,13.41
2017-05-03T02:52:07.586Z,13.45
2017-05-03T02:52:48.160Z,13.45
2017-05-03T02:53:28.666Z,13.45
2017-05-03T02:54:09.169Z,13.51
2017-05-03T02:54:49.661Z,13.41
2017-05-03T02:55:30.210Z,13.45
2017-05-03T02:56:10.661Z,13.42
2017-05-03T02:56:51.185Z,13.46
2017-05-03T02:57:33.247Z,13.45
2017-05-03T02:58:13.717Z,13.48
2017-05-03T02:58:54.338Z,13.52
2017-05-03T02:59:36.593Z,13.42
2017-05-03T03:00:17.156Z,13.57
2017-05-03T03:00:57.648Z,13.57
2017-05-03T03:01:38.173Z,13.48
2017-05-03T03:02:18.717Z,13.55
2017-05-03T03:03:01.860Z,13.59
2017-05-03T03:03:42.389Z,13.52
2017-05-03T03:04:22.911Z,13.57
2017-05-03T03:05:03.483Z,13.49
2017-05-03T03:05:44.027Z,13.57
2017-05-03T03:06:26.921Z,13.55
2017-05-03T03:07:07.787Z,13.6
2017-05-03T03:07:48.624Z,13.57
2017-05-03T03:08:29.292Z,13.59
2017-05-03T03:09:10.095Z,13.6
2017-05-03T03:09:50.755Z,13.59
2017-05-03T03:10:31.641Z,13.57
2017-05-03T03:11:12.184Z,13.66
2017-05-03T03:11:52.748Z,13.59
2017-05-03T03:12:33.453Z,13.57
2017-05-03T03:13:15.643Z,13.57
2017-05-03T03:13:56.189Z,13.54
2017-05-03T03:14:36.732Z,13.62
2017-05-03T03:15:17.240Z,13.6
2017-05-03T03:15:57.808Z,13.71
2017-05-03T03:16:38.304Z,13.75
2017-05-03T03:17:18.859Z,13.62
2017-05-03T03:17:59.305Z,13.73
2017-05-03T03:18:39.827Z,13.79
2017-05-03T03:19:20.335Z,13.73
2017-05-03T03:20:00.852Z,13.7
2017-05-03T03:20:41.371Z,13.77
2017-05-03T03:21:21.881Z,13.73
2017-05-03T03:22:02.380Z,13.75
2017-05-03T03:22:42.845Z,13.73
2017-05-03T03:23:23.383Z,13.7
2017-05-03T03:24:03.918Z,13.66
2017-05-03T03:24:44.401Z,13.75
2017-05-03T03:25:24.910Z,13.82
2017-05-03T03:26:05.395Z,13.79
2017-05-03T03:26:45.923Z,13.75
2017-05-03T03:27:26.406Z,13.6
2017-05-03T03:28:06.940Z,13.6
2017-05-03T03:28:47.439Z,13.6
2017-05-03T03:29:27.958Z,13.64
2017-05-03T03:30:08.497Z,13.63
2017-05-03T03:30:48.988Z,13.62
2017-05-03T03:31:29.566Z,13.59
2017-05-03T03:32:10.088Z,13.57
2017-05-03T03:32:50.568Z,13.55
2017-05-03T03:33:31.095Z,13.67
2017-05-03T03:34:11.600Z,13.55
2017-05-03T03:34:52.108Z,13.57
2017-05-03T03:35:32.683Z,13.62
2017-05-03T03:36:13.176Z,13.64
2017-05-03T03:36:53.764Z,13.66
2017-05-03T03:37:34.300Z,13.59
2017-05-03T03:38:14.816Z,13.62
2017-05-03T03:38:55.307Z,13.62
2017-05-03T03:39:35.856Z,13.64
2017-05-03T03:40:16.357Z,13.66
2017-05-03T03:40:56.863Z,13.59
2017-05-03T03:41:37.368Z,13.63
2017-05-03T03:42:17.903Z,13.57
2017-05-03T03:42:58.443Z,13.66
2017-05-03T03:43:38.962Z,13.6
2017-05-03T03:44:19.480Z,13.59
2017-05-03T03:45:00.024Z,13.62
2017-05-03T03:45:40.568Z,13.63
2017-05-03T03:46:21.079Z,13.59
2017-05-03T03:47:01.567Z,13.62
2017-05-03T03:47:42.093Z,13.62
2017-05-03T03:48:22.668Z,13.62
2017-05-03T03:49:03.212Z,13.6
2017-05-03T03:49:43.685Z,13.66
2017-05-03T03:50:24.180Z,13.71
2017-05-03T03:51:04.721Z,13.67
2017-05-03T03:51:45.198Z,13.7
2017-05-03T03:52:25.763Z,13.73
2017-05-03T03:53:06.338Z,13.79
2017-05-03T03:53:46.791Z,13.71
2017-05-03T03:54:27.330Z,13.64
2017-05-03T03:55:07.800Z,13.73
2017-05-03T03:55:48.327Z,13.75
2017-05-03T03:56:28.862Z,13.67
2017-05-03T03:57:09.356Z,13.7
2017-05-03T03:57:49.893Z,13.84
2017-05-03T03:58:30.497Z,13.78
2017-05-03T03:59:10.941Z,13.71
2017-05-03T03:59:51.470Z,13.75
2017-05-03T04:00:32.063Z,13.77
2017-05-03T04:01:12.577Z,13.64
2017-05-03T04:01:53.098Z,13.77
2017-05-03T04:02:33.606Z,13.67
2017-05-03T04:03:14.120Z,13.77
2017-05-03T04:03:54.660Z,13.82
2017-05-03T04:04:35.155Z,13.79
2017-05-03T04:05:15.660Z,13.88
2017-05-03T04:05:56.246Z,13.88
2017-05-03T04:06:36.825Z,13.88
2017-05-03T04:07:17.378Z,13.81
2017-05-03T04:07:57.897Z,13.77
2017-05-03T04:08:38.421Z,13.7
2017-05-03T04:09:18.943Z,13.69
2017-05-03T04:09:59.454Z,13.64
2017-05-03T04:10:39.989Z,13.62
2017-05-03T04:11:20.514Z,13.64
2017-05-03T04:12:01.055Z,13.71
2017-05-03T04:12:41.587Z,13.69
2017-05-03T04:13:22.151Z,13.63
2017-05-03T04:14:02.714Z,13.63
2017-05-03T04:14:43.202Z,13.63
2017-05-03T04:15:23.716Z,13.62
2017-05-03T04:16:04.247Z,13.6
2017-05-03T04:16:44.763Z,13.63
2017-05-03T04:17:25.375Z,13.62
2017-05-03T04:18:05.889Z,13.57
2017-05-03T04:18:46.425Z,13.52
2017-05-03T04:19:26.972Z,13.57
2017-05-03T04:20:07.492Z,13.67
2017-05-03T04:20:47.991Z,13.55
2017-05-03T04:21:28.519Z,13.46
2017-05-03T04:22:09.134Z,13.46
2017-05-03T04:22:49.627Z,13.51
2017-05-03T04:23:30.196Z,13.52
2017-05-03T04:24:10.714Z,13.42
2017-05-03T04:24:51.269Z,13.55
2017-05-03T04:25:31.751Z,13.57
2017-05-03T04:26:12.303Z,13.59
2017-05-03T04:26:52.764Z,13.54
2017-05-03T04:27:33.280Z,13.54
2017-05-03T04:28:13.845Z,13.6
2017-05-03T04:28:54.322Z,13.52
2017-05-03T04:29:34.880Z,13.54
2017-05-03T04:30:15.528Z,13.59
2017-05-03T04:30:56.001Z,13.62
2017-05-03T04:31:36.500Z,13.51
2017-05-03T04:32:17.004Z,13.57
2017-05-03T04:32:57.526Z,13.52
2017-05-03T04:33:37.974Z,13.57
2017-05-03T04:34:18.527Z,13.57
2017-05-03T04:34:59.010Z,13.55
2017-05-03T04:35:39.516Z,13.52
2017-05-03T04:36:20.022Z,13.59
2017-05-03T04:37:00.525Z,13.57
2017-05-03T04:37:41.023Z,13.54
2017-05-03T04:38:21.515Z,13.59
2017-05-03T04:39:02.058Z,13.57
2017-05-03T04:39:42.653Z,13.55
2017-05-03T04:40:23.204Z,13.57
2017-05-03T04:41:03.759Z,13.59
2017-05-03T04:41:44.287Z,13.54
2017-05-03T04:42:24.788Z,13.55
2017-05-03T04:43:05.374Z,13.55
2017-05-03T04:43:45.904Z,13.55
2017-05-03T04:44:26.440Z,13.54
2017-05-03T04:45:06.965Z,13.66
2017-05-03T04:45:47.465Z,13.63
2017-05-03T04:46:28.015Z,13.63
2017-05-03T04:47:08.466Z,13.64
2017-05-03T04:47:49.009Z,13.64
2017-05-03T04:48:29.575Z,13.67
2017-05-03T04:49:10.060Z,13.67
2017-05-03T04:49:50.590Z,13.77
2017-05-03T04:50:31.102Z,13.71
2017-05-03T04:51:11.715Z,13.64
2017-05-03T04:51:52.229Z,13.69
2017-05-03T04:52:32.777Z,13.59
2017-05-03T04:53:13.233Z,13.63
2017-05-03T04:53:53.753Z,13.59
2017-05-03T04:54:34.266Z,13.62
2017-05-03T04:55:14.834Z,13.6
2017-05-03T04:55:56.763Z,13.64
2017-05-03T04:56:37.283Z,13.63
2017-05-03T04:57:17.788Z,13.62
2017-05-03T04:57:58.289Z,13.63
2017-05-03T04:58:38.825Z,13.67
2017-05-03T04:59:19.379Z,13.78
2017-05-03T04:59:59.933Z,13.79
2017-05-03T05:00:40.439Z,13.92
2017-05-03T05:01:20.943Z,14.02
2017-05-03T05:02:01.512Z,14.14
2017-05-03T05:02:42.007Z,14.14
2017-05-03T05:03:22.521Z,14.33
2017-05-03T05:04:03.061Z,14.28
2017-05-03T05:04:43.566Z,14.28
2017-05-03T05:05:24.154Z,14.24
2017-05-03T05:06:04.659Z,14.28
2017-05-03T05:06:45.220Z,14.28
2017-05-03T05:07:25.727Z,14.25
2017-05-03T05:08:06.222Z,14.32
2017-05-03T05:08:46.757Z,14.21
2017-05-03T05:09:27.291Z,14.4
2017-05-03T05:10:07.795Z,14.45
2017-05-03T05:10:48.380Z,14.39
2017-05-03T05:11:28.923Z,14.42
2017-05-03T05:12:09.394Z,14.28
2017-05-03T05:12:50.013Z,14.28
2017-05-03T05:13:30.493Z,14.25
2017-05-03T05:14:11.095Z,14.4
2017-05-03T05:14:51.605Z,14.27
2017-05-03T05:15:32.103Z,14.27
2017-05-03T05:16:12.610Z,14.29
2017-05-03T05:16:53.255Z,14.2
2017-05-03T05:17:33.786Z,14.17
2017-05-03T05:18:15.890Z,14.15
2017-05-03T05:18:56.445Z,14.18
2017-05-03T05:19:36.949Z,14.18
2017-05-03T05:20:17.447Z,14.2
2017-05-03T05:20:57.958Z,14.2
2017-05-03T05:21:38.533Z,14.21
2017-05-03T05:22:19.066Z,14.22
2017-05-03T05:23:02.928Z,14.29
2017-05-03T05:23:43.473Z,14.33
2017-05-03T05:24:23.964Z,14.27
2017-05-03T05:25:04.516Z,14.29
2017-05-03T05:25:45.031Z,14.42
2017-05-03T05:26:25.574Z,14.33
2017-05-03T05:27:06.109Z,14.47
2017-05-03T05:27:46.569Z,14.51
2017-05-03T05:28:27.135Z,14.52
2017-05-03T05:29:07.675Z,14.6
2017-05-03T05:29:48.177Z,14.61
2017-05-03T05:30:28.706Z,14.64
2017-05-03T05:31:09.230Z,14.61
2017-05-03T05:31:49.724Z,14.58
2017-05-03T05:32:30.384Z,14.51
2017-05-03T05:33:10.887Z,14.51
2017-05-03T05:33:51.423Z,14.52
2017-05-03T05:34:31.930Z,14.46
2017-05-03T05:35:12.481Z,14.43
2017-05-03T05:35:53.000Z,14.47
2017-05-03T05:36:33.539Z,14.5
2017-05-03T05:37:14.054Z,14.5
2017-05-03T05:37:54.528Z,14.47
2017-05-03T05:38:35.033Z,14.45
2017-05-03T05:39:15.510Z,14.52
2017-05-03T05:39:55.999Z,14.62
2017-05-03T05:40:36.521Z,14.57
2017-05-03T05:41:17.192Z,14.61
2017-05-03T05:41:57.525Z,14.47
2017-05-03T05:42:38.119Z,14.52
2017-05-03T05:43:18.680Z,14.55
2017-05-03T05:43:59.202Z,14.6
2017-05-03T05:44:41.656Z,14.6
2017-05-03T05:45:22.195Z,14.64
2017-05-03T05:46:02.684Z,14.69
2017-05-03T05:46:43.234Z,14.72
2017-05-03T05:47:23.713Z,14.55
2017-05-03T05:48:04.258Z,14.62
2017-05-03T05:48:45.655Z,14.64
2017-05-03T05:49:28.048Z,14.65
2017-05-03T05:50:08.512Z,14.64
2017-05-03T05:50:51.251Z,14.65
2017-05-03T05:51:31.976Z,14.54
2017-05-03T05:52:12.609Z,14.68
2017-05-03T05:52:53.181Z,14.61
2017-05-03T05:53:33.684Z,14.65
2017-05-03T05:54:14.208Z,14.64
2017-05-03T05:54:54.697Z,14.65
2017-05-03T05:57:48.670Z,14.81
2017-05-03T05:58:30.504Z,14.8
2017-05-03T05:59:11.403Z,14.94
2017-05-03T05:59:51.865Z,14.92
2017-05-03T06:00:32.378Z,14.95
2017-05-03T06:01:12.907Z,14.84
2017-05-03T06:01:53.447Z,15.01
2017-05-03T06:02:33.954Z,14.98
2017-05-03T06:03:14.918Z,15.02
2017-05-03T06:03:55.533Z,15.01
2017-05-03T06:04:35.955Z,15.19
2017-05-03T06:05:16.485Z,15.46
2017-05-03T06:05:56.997Z,15.5
2017-05-03T06:06:37.511Z,15.59
2017-05-03T06:07:17.955Z,15.86
2017-05-03T06:07:58.841Z,16
2017-05-03T06:08:39.249Z,15.97
2017-05-03T06:09:19.729Z,16.08
2017-05-03T06:10:00.664Z,16.2
2017-05-03T06:10:41.093Z,16.42
2017-05-03T06:11:21.780Z,16.48
2017-05-03T06:12:02.381Z,16.49
2017-05-03T06:12:42.899Z,16.75
2017-05-03T06:13:23.331Z,16.83
2017-05-03T06:14:04.254Z,17.01
2017-05-03T06:14:44.760Z,16.91
2017-05-03T06:15:25.300Z,17
2017-05-03T06:16:05.834Z,17.08
2017-05-03T06:16:46.312Z,17.22
2017-05-03T06:17:26.847Z,17.22
2017-05-03T06:18:07.329Z,17.31
2017-05-03T06:18:52.175Z,17.43
2017-05-03T06:19:33.045Z,17.46
2017-05-03T06:20:15.225Z,17.48
2017-05-03T06:20:54.298Z,17.46
2017-05-03T06:21:41.621Z,17.56
2017-05-03T06:22:22.186Z,17.59
2017-05-03T06:23:03.122Z,17.38
2017-05-03T06:23:43.711Z,17.49
2017-05-03T06:24:24.251Z,17.43
2017-05-03T06:25:04.728Z,17.48
2017-05-03T06:25:45.244Z,17.56
2017-05-03T06:26:25.757Z,17.54
2017-05-03T06:27:06.359Z,17.23
2017-05-03T06:27:46.906Z,17.3
2017-05-03T06:28:27.686Z,17.25
2017-05-03T06:29:08.218Z,17.4
2017-05-03T06:29:48.939Z,17.49
2017-05-03T06:30:29.576Z,17.56
2017-05-03T06:31:10.036Z,17.58
2017-05-03T06:31:50.759Z,17.59
2017-05-03T06:32:31.111Z,17.72
2017-05-03T06:33:11.865Z,17.75
2017-05-03T06:33:52.182Z,17.87
2017-05-03T06:34:32.894Z,17.86
2017-05-03T06:35:13.444Z,17.78
2017-05-03T06:35:53.957Z,17.86
2017-05-03T06:36:34.645Z,17.79
2017-05-03T06:37:15.125Z,17.75
2017-05-03T06:37:55.638Z,17.7
2017-05-03T06:38:36.331Z,17.64
2017-05-03T06:39:16.880Z,17.52
2017-05-03T06:39:57.367Z,17.55
2017-05-03T06:40:37.817Z,17.49
2017-05-03T06:41:18.330Z,17.49
2017-05-03T06:41:58.889Z,17.48
2017-05-03T06:42:39.284Z,17.49
2017-05-03T06:43:19.816Z,17.44
2017-05-03T06:44:00.316Z,17.33
2017-05-03T06:44:40.812Z,17.22
2017-05-03T06:45:21.331Z,17.28
2017-05-03T06:46:01.834Z,17.11
2017-05-03T06:46:42.349Z,17.08
2017-05-03T06:47:22.861Z,17.11
2017-05-03T06:48:03.368Z,17.08
2017-05-03T06:48:43.833Z,16.88
2017-05-03T06:49:24.367Z,16.81
2017-05-03T06:50:04.927Z,16.73
2017-05-03T06:50:45.497Z,16.79
2017-05-03T06:51:26.024Z,16.86
2017-05-03T06:52:06.522Z,16.83
2017-05-03T06:52:47.055Z,16.79
2017-05-03T06:53:27.561Z,16.96
2017-05-03T06:54:08.019Z,17.12
2017-05-03T06:54:48.533Z,17.14
2017-05-03T06:55:29.067Z,17.06
2017-05-03T06:56:09.661Z,17.11
2017-05-03T06:56:50.236Z,16.96
2017-05-03T06:57:30.713Z,16.98
2017-05-03T06:58:11.219Z,17.07
2017-05-03T06:58:51.688Z,17.14
2017-05-03T06:59:32.167Z,17.14
2017-05-03T07:00:12.673Z,17.19
2017-05-03T07:00:53.195Z,17.43
2017-05-03T07:01:33.876Z,17.48
2017-05-03T07:02:14.384Z,17.33
2017-05-03T07:02:54.894Z,17.23
2017-05-03T07:03:35.935Z,17.25
2017-05-03T07:04:16.477Z,17.48
2017-05-03T07:04:56.974Z,17.44
2017-05-03T07:05:37.515Z,17.41
2017-05-03T07:06:18.016Z,17.34
2017-05-03T07:06:58.503Z,17.41
2017-05-03T07:07:39.047Z,17.41
2017-05-03T07:08:19.508Z,17.48
2017-05-03T07:08:59.980Z,17.62
2017-05-03T07:09:40.522Z,17.68
2017-05-03T07:10:21.084Z,17.49
2017-05-03T07:11:01.574Z,17.59
2017-05-03T07:11:42.040Z,17.72
2017-05-03T07:12:22.558Z,17.74
2017-05-03T07:13:03.056Z,17.86
2017-05-03T07:13:43.509Z,17.89
2017-05-03T07:14:24.081Z,17.99
2017-05-03T07:15:04.473Z,17.68
2017-05-03T07:15:45.032Z,17.54
2017-05-03T07:16:26.234Z,17.58
2017-05-03T07:17:06.972Z,17.56
2017-05-03T07:17:47.453Z,17.66
2017-05-03T07:18:27.914Z,17.59
2017-05-03T07:19:08.435Z,17.71
2017-05-03T07:19:48.917Z,17.58
2017-05-03T07:20:29.510Z,17.56
2017-05-03T07:21:10.004Z,17.82
2017-05-03T07:21:50.452Z,17.89
2017-05-03T07:22:31.003Z,17.9
2017-05-03T07:23:11.516Z,17.82
2017-05-03T07:23:52.005Z,17.7
2017-05-03T07:24:32.497Z,17.56
2017-05-03T07:25:12.957Z,17.59
2017-05-03T07:25:53.458Z,17.71
2017-05-03T07:26:33.926Z,17.75
2017-05-03T07:27:14.447Z,17.75
2017-05-03T07:27:54.950Z,17.72
2017-05-03T07:28:35.416Z,17.66
2017-05-03T07:29:15.923Z,17.68
2017-05-03T07:29:56.448Z,17.56
2017-05-03T07:30:36.913Z,17.49
2017-05-03T07:31:17.422Z,17.48
2017-05-03T07:31:57.914Z,17.46
2017-05-03T07:32:38.373Z,17.33
2017-05-03T07:33:18.881Z,17.37
2017-05-03T07:33:59.347Z,17.52
2017-05-03T07:34:39.832Z,17.52
2017-05-03T07:35:20.404Z,17.46
2017-05-03T07:36:00.827Z,17.55
2017-05-03T07:36:41.346Z,17.68
2017-05-03T07:37:21.817Z,17.7
2017-05-03T07:38:02.316Z,17.74
2017-05-03T07:38:42.798Z,17.63
2017-05-03T07:39:23.283Z,17.62
2017-05-03T07:40:03.811Z,17.66
2017-05-03T07:40:44.266Z,17.75
2017-05-03T07:41:24.811Z,17.81
2017-05-03T07:42:05.285Z,17.63
2017-05-03T07:42:45.730Z,17.63
2017-05-03T07:43:26.252Z,17.63
2017-05-03T07:44:06.847Z,17.33
2017-05-03T07:44:47.308Z,17.41
2017-05-03T07:45:27.807Z,17.52
2017-05-03T07:46:08.266Z,17.58
2017-05-03T07:46:48.773Z,17.64
2017-05-03T07:47:29.266Z,17.68
2017-05-03T07:48:10.836Z,17.72
2017-05-03T07:48:50.771Z,17.75
2017-05-03T07:49:31.286Z,17.81
2017-05-03T07:50:11.738Z,17.71
2017-05-03T07:50:52.249Z,17.54
2017-05-03T07:51:32.753Z,17.71
2017-05-03T07:52:13.255Z,17.72
2017-05-03T07:52:53.747Z,17.62
2017-05-03T07:53:34.262Z,17.49
2017-05-03T07:54:14.719Z,17.58
2017-05-03T07:54:55.203Z,17.54
2017-05-03T07:55:35.733Z,17.52
2017-05-03T07:56:16.229Z,17.55
2017-05-03T07:56:56.738Z,17.62
2017-05-03T07:57:37.264Z,17.75
2017-05-03T07:58:17.693Z,17.66
2017-05-03T07:58:58.207Z,17.71
2017-05-03T07:59:38.683Z,17.52
2017-05-03T08:00:19.168Z,17.56
2017-05-03T08:00:59.701Z,17.54
2017-05-03T08:01:40.194Z,17.56
2017-05-03T08:02:20.701Z,17.52
2017-05-03T08:03:01.240Z,17.49
2017-05-03T08:03:41.707Z,17.55
2017-05-03T08:04:22.206Z,17.51
2017-05-03T08:05:02.702Z,17.38
2017-05-03T08:05:43.265Z,17.33
2017-05-03T08:06:23.740Z,17.25
2017-05-03T08:07:04.428Z,17.21
2017-05-03T08:07:44.948Z,17.25
2017-05-03T08:08:25.411Z,17.08
2017-05-03T08:09:05.916Z,16.98
2017-05-03T08:09:46.416Z,16.91
2017-05-03T08:10:26.968Z,16.89
2017-05-03T08:11:07.423Z,17.06
2017-05-03T08:11:47.932Z,17.04
2017-05-03T08:12:28.448Z,17.08
2017-05-03T08:13:08.959Z,17.12
2017-05-03T08:13:49.426Z,17.12
2017-05-03T08:14:29.923Z,17.15
2017-05-03T08:15:10.396Z,17.08
2017-05-03T08:15:50.989Z,17.11
2017-05-03T08:16:31.438Z,17.16
2017-05-03T08:17:11.897Z,17.11
2017-05-03T08:17:52.397Z,17.15
2017-05-03T08:18:32.853Z,17
2017-05-03T08:19:13.329Z,17
2017-05-03T08:19:53.802Z,16.88
2017-05-03T08:20:34.287Z,17
2017-05-03T08:21:14.793Z,17.03
2017-05-03T08:21:55.280Z,17.04
2017-05-03T08:22:35.762Z,17.15
2017-05-03T08:23:16.294Z,17.11
2017-05-03T08:23:56.777Z,17.06
2017-05-03T08:24:37.283Z,16.97
2017-05-03T08:25:17.782Z,16.88
2017-05-03T08:25:58.368Z,16.97
2017-05-03T08:26:38.959Z,16.97
2017-05-03T08:27:19.423Z,16.91
2017-05-03T08:27:59.926Z,17.01
2017-05-03T08:28:40.393Z,17.12
2017-05-03T08:29:20.883Z,17.06
2017-05-03T08:30:01.382Z,17
2017-05-03T08:30:41.891Z,17.08
2017-05-03T08:31:23.074Z,17.08
2017-05-03T08:32:03.562Z,17.14
2017-05-03T08:32:44.094Z,17.19
2017-05-03T08:33:28.028Z,17.16
2017-05-03T08:34:09.912Z,17.03
2017-05-03T08:34:52.008Z,17.08
2017-05-03T08:35:34.263Z,17.23
2017-05-03T08:36:20.578Z,17.12
2017-05-03T08:37:15.258Z,17.11
2017-05-03T08:39:14.616Z,16.88
2017-05-03T08:39:56.311Z,16.88
2017-05-03T08:42:12.925Z,16.81
2017-05-03T08:42:54.926Z,16.88
2017-05-03T08:43:37.223Z,16.81
2017-05-03T08:44:20.019Z,16.79
2017-05-03T08:45:51.836Z,16.75
2017-05-03T08:47:21.444Z,16.79
2017-05-03T08:48:03.114Z,16.79
2017-05-03T08:50:20.132Z,17.04
2017-05-03T08:51:03.908Z,17
2017-05-03T08:51:46.709Z,17.12
2017-05-03T08:52:29.156Z,17.04
2017-05-03T08:54:20.387Z,17.15
2017-05-03T08:55:03.172Z,17.08
2017-05-03T08:55:44.283Z,17.08
2017-05-03T08:56:29.700Z,17.07